Time;durP1;ratioP1;P1;durP2;ratioP2;P2;SDS_P1;SDS_P2;PMS_P1;PMS_P2;Temp;Humidity;BMP_temperature;BMP_pressure;BME280_temperature;BME280_humidity;BME280_pressure;Samples;Min_cycle;Max_cycle;Signal;HPM_P1;HPM_P2
2021/12/22 00:02:05;;;;;;;36.57;13.30;;;;;;;-2.08;67.31;95617.47;4994043;28;20172;-78
2021/12/22 00:04:33;;;;;;;35.27;13.03;;;;;;;-2.10;67.82;95634.00;4994158;28;20201;-78
2021/12/22 00:06:58;;;;;;;35.37;14.53;;;;;;;-1.94;68.24;95652.53;4993799;28;20173;-78
2021/12/22 00:09:23;;;;;;;37.00;14.13;;;;;;;-1.89;68.49;95655.59;4993242;28;20180;-78
2021/12/22 00:11:49;;;;;;;38.13;12.27;;;;;;;-1.94;67.92;95652.53;4993944;28;20252;-78
2021/12/22 00:14:17;;;;;;;23.57;10.33;;;;;;;-2.06;68.00;95636.22;4993897;28;20211;-78
2021/12/22 00:16:43;;;;;;;26.30;10.17;;;;;;;-1.97;68.18;95657.91;4993759;28;20189;-78
2021/12/22 00:19:08;;;;;;;14.93;8.50;;;;;;;-2.02;67.92;95658.28;4993554;28;20247;-78
2021/12/22 00:21:34;;;;;;;18.90;9.23;;;;;;;-2.04;67.47;95649.00;4993635;28;20173;-77
2021/12/22 00:23:59;;;;;;;18.43;9.83;;;;;;;-2.11;67.51;95647.81;4993632;28;20690;-78
2021/12/22 00:26:25;;;;;;;22.73;9.67;;;;;;;-2.21;68.06;95645.09;4993112;28;20193;-77
2021/12/22 00:28:50;;;;;;;19.53;9.30;;;;;;;-2.18;69.08;95644.88;4993276;28;20212;-77
2021/12/22 00:31:20;;;;;;;22.83;9.90;;;;;;;-2.22;68.68;95635.72;4993453;28;20264;-78
2021/12/22 00:33:51;;;;;;;21.97;10.57;;;;;;;-2.19;68.63;95650.97;4993671;28;20196;-78
2021/12/22 00:36:20;;;;;;;22.07;9.63;;;;;;;-2.25;68.16;95651.44;4993707;28;20173;-78
2021/12/22 00:38:46;;;;;;;24.40;10.43;;;;;;;-2.18;68.10;95654.38;4993166;28;20189;-78
2021/12/22 00:41:12;;;;;;;21.13;9.87;;;;;;;-2.21;68.52;95667.47;4993342;28;20681;-78
2021/12/22 00:43:38;;;;;;;18.50;9.90;;;;;;;-2.16;67.98;95665.41;4992923;28;20303;-78
2021/12/22 00:46:04;;;;;;;18.20;8.93;;;;;;;-2.26;68.35;95649.78;4993270;28;20185;-78
2021/12/22 00:48:30;;;;;;;17.63;8.77;;;;;;;-2.17;68.12;95666.34;4993503;28;20239;-78
2021/12/22 00:50:58;;;;;;;15.53;8.40;;;;;;;-2.34;68.74;95665.00;4993082;28;20188;-78
2021/12/22 00:53:24;;;;;;;14.40;7.40;;;;;;;-2.35;68.92;95665.94;4993215;28;20626;-78
2021/12/22 00:55:50;;;;;;;12.23;6.73;;;;;;;-2.40;68.81;95665.44;4993274;28;20252;-78
2021/12/22 00:58:16;;;;;;;13.17;7.00;;;;;;;-2.53;69.13;95637.16;4993164;28;20187;-78
2021/12/22 01:00:45;;;;;;;14.17;7.37;;;;;;;-2.40;69.04;95665.44;4993241;28;20259;-78
2021/12/22 01:03:11;;;;;;;13.30;7.37;;;;;;;-2.42;69.28;95652.66;4992762;28;20185;-78
2021/12/22 01:05:36;;;;;;;9.33;6.33;;;;;;;-2.52;68.89;95640.56;4993192;28;20193;-78
2021/12/22 01:08:01;;;;;;;11.73;6.73;;;;;;;-2.36;69.44;95669.44;4993045;28;20180;-78
2021/12/22 01:10:29;;;;;;;14.43;7.80;;;;;;;-2.35;69.43;95661.59;4992434;28;20185;-78
2021/12/22 01:12:58;;;;;;;16.00;8.57;;;;;;;-2.40;69.78;95665.44;4992717;28;20250;-78
2021/12/22 01:15:25;;;;;;;16.87;8.17;;;;;;;-2.34;69.90;95654.69;4992619;28;20169;-77
2021/12/22 01:17:59;;;;;;;15.40;8.43;;;;;;;-2.55;70.01;95622.75;4992664;28;20189;-78
2021/12/22 01:20:33;;;;;;;15.33;9.13;;;;;;;-2.29;70.10;95657.75;4992351;28;20222;-78
2021/12/22 01:23:02;;;;;;;18.03;8.80;;;;;;;-2.21;69.76;95660.56;4993001;28;20192;-78
2021/12/22 01:25:29;;;;;;;18.90;8.23;;;;;;;-2.30;68.08;95633.72;4992383;28;20201;-78
2021/12/22 01:27:55;;;;;;;15.20;9.00;;;;;;;-2.24;67.94;95650.47;4992528;28;20188;-78
2021/12/22 01:30:24;;;;;;;13.53;7.80;;;;;;;-2.32;67.83;95639.91;4993221;28;20188;-78
2021/12/22 01:32:54;;;;;;;19.33;8.23;;;;;;;-2.29;67.67;95650.00;4984478;28;20849;-78
2021/12/22 01:35:24;;;;;;;13.03;7.63;;;;;;;-2.28;67.67;95649.06;4993134;28;20181;-78
2021/12/22 01:37:50;;;;;;;12.27;7.03;;;;;;;-2.31;67.37;95636.41;4992801;28;20193;-77
2021/12/22 01:40:18;;;;;;;16.47;7.53;;;;;;;-2.35;67.30;95642.72;4992425;28;20264;-78
2021/12/22 01:42:44;;;;;;;12.87;6.90;;;;;;;-2.35;67.44;95642.72;4992201;28;20217;-78
2021/12/22 01:50:37;;;;;;;13.33;7.03;;;;;;;-2.45;68.12;95636.59;4992872;28;20257;-77
2021/12/22 01:53:29;;;;;;;10.07;6.13;;;;;;;-2.48;68.03;95640.22;4992727;28;20192;-78
2021/12/22 01:56:37;;;;;;;12.33;6.60;;;;;;;-2.47;67.21;95630.72;4992333;28;20189;-79
2021/12/22 01:59:00;;;;;;;13.83;6.83;;;;;;;-2.50;67.06;95625.78;4985195;28;20678;-78
2021/12/22 02:01:27;;;;;;;14.37;6.83;;;;;;;-2.52;67.38;95630.25;4992653;28;20315;-78
2021/12/22 02:03:53;;;;;;;17.47;8.17;;;;;;;-2.77;67.89;95602.88;4992516;28;20698;-78
2021/12/22 02:06:20;;;;;;;20.60;8.17;;;;;;;-2.60;68.67;95635.97;4992536;28;20192;-78
2021/12/22 02:08:52;;;;;;;23.67;10.53;;;;;;;-2.69;68.80;95634.88;4992290;28;20192;-78
2021/12/22 02:11:18;;;;;;;15.53;8.60;;;;;;;-2.70;69.20;95630.66;4992416;28;20177;-78
2021/12/22 02:13:49;;;;;;;18.73;9.23;;;;;;;-2.61;68.72;95634.31;4992099;28;20666;-78
2021/12/22 02:16:16;;;;;;;18.27;9.17;;;;;;;-2.66;68.57;95620.94;4992456;28;20230;-79
2021/12/22 02:18:52;;;;;;;36.07;17.03;;;;;;;-2.68;68.57;95618.47;4992673;28;20173;-78
2021/12/22 02:21:22;;;;;;;42.77;21.57;;;;;;;-2.84;69.04;95604.25;4984190;28;20184;-78
2021/12/22 02:23:47;;;;;;;41.37;19.07;;;;;;;-2.68;69.13;95626.19;4992384;28;20200;-78
2021/12/22 02:26:22;;;;;;;43.53;20.30;;;;;;;-2.73;69.19;95620.56;4992449;28;20192;-78
2021/12/22 02:28:56;;;;;;;43.83;21.83;;;;;;;-2.85;69.50;95611.16;4985847;28;20177;-79
2021/12/22 02:31:23;;;;;;;41.77;20.13;;;;;;;-2.77;69.83;95623.50;4992104;28;20256;-78
2021/12/22 02:33:50;;;;;;;40.13;21.23;;;;;;;-2.98;69.09;95589.78;4994910;28;20181;-78
2021/12/22 02:38:46;;;;;;;47.43;23.00;;;;;;;-3.00;70.21;95604.53;4996008;28;20173;-78
2021/12/22 02:41:14;;;;;;;43.83;21.17;;;;;;;-3.05;70.47;95604.88;4995239;28;20574;-78
2021/12/22 02:43:53;;;;;;;41.53;20.60;;;;;;;-3.09;70.51;95608.59;4995138;28;20312;-78
2021/12/22 02:46:23;;;;;;;41.53;22.07;;;;;;;-3.42;70.87;95560.34;4995353;28;20184;-78
2021/12/22 02:48:50;;;;;;;41.87;20.97;;;;;;;-3.26;70.84;95592.69;4995517;28;20276;-78
2021/12/22 02:51:16;;;;;;;41.90;21.40;;;;;;;-3.21;70.94;95596.59;4995499;28;20207;-77
2021/12/22 03:04:01;;;;;;;42.07;21.50;;;;;;;-3.29;71.14;95616.09;4995047;28;20197;-77
2021/12/22 03:06:41;;;;;;;38.53;19.37;;;;;;;-3.35;70.98;95616.50;4995113;28;20191;-78
2021/12/22 03:09:28;;;;;;;47.27;24.53;;;;;;;-3.67;71.78;95575.84;4995127;28;20176;-78
2021/12/22 03:11:55;;;;;;;45.53;22.10;;;;;;;-3.42;71.64;95618.69;4995201;28;20654;-77
2021/12/22 03:14:23;;;;;;;49.27;22.97;;;;;;;-3.57;72.09;95596.59;4995023;28;20177;-78
2021/12/22 03:16:50;;;;;;;55.40;25.97;;;;;;;-3.46;71.97;95612.91;4995202;28;20169;-78
2021/12/22 03:19:22;;;;;;;72.80;28.93;;;;;;;-3.46;71.86;95615.50;4995087;28;20173;-78
2021/12/22 03:21:49;;;;;;;70.43;24.53;;;;;;;-3.57;71.90;95592.28;4994934;28;20192;-78
2021/12/22 03:24:18;;;;;;;66.07;25.90;;;;;;;-3.44;71.92;95616.22;4994706;28;20655;-77
2021/12/22 03:26:44;;;;;;;80.90;28.47;;;;;;;-3.48;72.28;95611.41;4993928;28;20193;-77
2021/12/22 03:29:12;;;;;;;68.87;27.03;;;;;;;-3.52;72.78;95618.50;4994619;28;20169;-77
2021/12/22 03:31:38;;;;;;;63.07;25.73;;;;;;;-3.51;72.87;95617.56;4994436;28;20256;-77
2021/12/22 03:34:05;;;;;;;67.77;26.80;;;;;;;-3.52;73.88;95600.50;4993942;28;20566;-77
2021/12/22 03:36:31;;;;;;;71.83;26.63;;;;;;;-3.42;73.23;95616.94;4994887;28;20686;-77
2021/12/22 03:38:56;;;;;;;68.17;28.00;;;;;;;-3.38;72.79;95606.44;4994759;28;20235;-77
2021/12/22 03:41:26;;;;;;;66.83;30.13;;;;;;;-3.43;72.27;95586.16;4994407;28;20217;-77
2021/12/22 03:43:52;;;;;;;75.70;32.87;;;;;;;-3.52;72.26;95585.06;4993248;28;20232;-78
2021/12/22 03:46:18;;;;;;;66.90;31.27;;;;;;;-3.30;72.13;95609.28;4989881;28;20580;-77
2021/12/22 03:48:44;;;;;;;78.40;33.10;;;;;;;-3.34;72.31;95618.97;4993375;28;20558;-78
2021/12/22 03:51:09;;;;;;;79.30;32.30;;;;;;;-3.37;72.26;95615.81;4994778;28;20181;-78
2021/12/22 03:53:35;;;;;;;78.53;37.53;;;;;;;-3.63;72.27;95597.84;4994649;28;20208;-78
2021/12/22 03:56:01;;;;;;;81.57;39.03;;;;;;;-3.53;72.93;95616.84;4994407;28;20193;-78
2021/12/22 03:58:26;;;;;;;104.50;41.70;;;;;;;-3.61;73.06;95629.44;4994269;28;20200;-78
2021/12/22 04:00:54;;;;;;;112.07;48.73;;;;;;;-3.66;73.42;95621.22;4993642;28;20181;-78
2021/12/22 04:03:23;;;;;;;97.47;41.93;;;;;;;-3.71;73.70;95625.00;4994122;28;20208;-78
2021/12/22 04:05:49;;;;;;;91.17;38.60;;;;;;;-3.75;73.05;95632.13;4994534;28;20197;-78
2021/12/22 04:08:18;;;;;;;103.20;39.30;;;;;;;-3.77;73.21;95621.13;4994301;28;20243;-78
2021/12/22 04:10:45;;;;;;;101.10;37.07;;;;;;;-3.79;73.98;95625.53;4994313;28;20181;-78
2021/12/22 04:13:11;;;;;;;222.43;61.90;;;;;;;-3.76;73.85;95630.50;4994404;28;20271;-77
2021/12/22 04:15:37;;;;;;;253.60;68.27;;;;;;;-3.93;73.40;95597.38;4993632;28;20256;-77
2021/12/22 04:18:02;;;;;;;168.47;52.57;;;;;;;-3.81;73.41;95612.81;4993967;28;20193;-76
2021/12/22 04:20:29;;;;;;;117.00;45.90;;;;;;;-3.72;73.61;95626.78;4993585;28;20620;-77
2021/12/22 04:22:55;;;;;;;149.00;48.77;;;;;;;-3.75;73.77;95639.84;4994005;28;20184;-77
2021/12/22 04:25:21;;;;;;;144.40;47.07;;;;;;;-3.86;73.86;95619.19;4993934;28;20291;-77
2021/12/22 04:27:51;;;;;;;129.03;45.47;;;;;;;-3.82;72.87;95623.19;4993361;28;20239;-77
2021/12/22 04:30:17;;;;;;;122.00;41.37;;;;;;;-3.81;73.80;95628.25;4993158;28;20558;-77
2021/12/22 04:32:42;;;;;;;116.63;43.43;;;;;;;-3.82;73.91;95633.50;4993661;28;20188;-77
2021/12/22 04:35:08;;;;;;;116.23;41.63;;;;;;;-3.84;73.77;95635.34;4993532;28;20185;-77
2021/12/22 04:37:33;;;;;;;126.23;43.27;;;;;;;-3.78;73.74;95639.22;4993368;28;20272;-78
2021/12/22 04:39:59;;;;;;;110.27;42.43;;;;;;;-3.84;73.95;95630.19;4993290;28;20243;-76
2021/12/22 04:42:24;;;;;;;104.73;40.23;;;;;;;-3.85;73.85;95626.78;4992683;28;20685;-77
2021/12/22 04:44:53;;;;;;;94.27;38.50;;;;;;;-3.74;74.17;95641.50;4993063;28;20664;-78
2021/12/22 04:47:20;;;;;;;102.67;40.40;;;;;;;-3.79;73.84;95630.69;4993016;28;20177;-78
2021/12/22 04:49:45;;;;;;;100.93;39.13;;;;;;;-3.66;73.78;95651.25;4993358;28;20181;-77
2021/12/22 04:52:15;;;;;;;103.60;38.27;;;;;;;-3.77;73.14;95636.56;4992590;28;20196;-78
2021/12/22 04:54:49;;;;;;;120.03;41.87;;;;;;;-3.65;73.66;95655.47;4992606;28;20183;-77
2021/12/22 04:57:14;;;;;;;257.63;69.97;;;;;;;-3.93;73.64;95616.22;4992601;28;20284;-77
2021/12/22 04:59:40;;;;;;;276.07;74.97;;;;;;;-3.69;73.67;95643.75;4992929;28;20255;-77
2021/12/22 05:02:05;;;;;;;285.93;79.57;;;;;;;-3.64;73.25;95651.97;4992819;28;20259;-78
2021/12/22 05:04:30;;;;;;;254.23;80.60;;;;;;;-3.63;73.06;95651.84;4991967;28;20250;-78
2021/12/22 05:06:57;;;;;;;273.20;85.70;;;;;;;-3.59;73.00;95655.88;4988331;28;20569;-78
2021/12/22 05:09:23;;;;;;;310.23;90.47;;;;;;;-3.57;72.50;95658.34;4993082;28;20192;-78
2021/12/22 05:11:50;;;;;;;356.70;106.27;;;;;;;-3.78;72.70;95628.94;4993515;28;20173;-79
2021/12/22 05:14:16;;;;;;;360.20;110.30;;;;;;;-3.74;72.55;95646.66;4994895;28;20164;-79
2021/12/22 05:16:46;;;;;;;329.10;106.40;;;;;;;-3.75;72.28;95655.28;4993546;28;20177;-78
2021/12/22 05:19:14;;;;;;;303.63;90.53;;;;;;;-3.73;73.13;95668.03;4993221;28;20678;-78
2021/12/22 05:21:42;;;;;;;281.07;85.37;;;;;;;-3.97;73.01;95639.66;4992285;28;20181;-78
2021/12/22 05:24:07;;;;;;;188.87;65.83;;;;;;;-3.95;73.21;95648.09;4992589;28;20212;-79
2021/12/22 05:26:33;;;;;;;175.10;54.30;;;;;;;-3.80;73.51;95670.19;4992375;28;20529;-78
2021/12/22 05:28:58;;;;;;;138.90;47.80;;;;;;;-3.72;72.93;95667.94;4992020;28;20227;-79
2021/12/22 05:31:24;;;;;;;123.60;42.77;;;;;;;-3.64;72.17;95675.97;4992321;28;20177;-79
2021/12/22 05:33:50;;;;;;;117.63;43.00;;;;;;;-3.61;72.57;95682.63;4992744;28;20181;-78
2021/12/22 05:36:16;;;;;;;127.27;45.20;;;;;;;-3.72;72.43;95667.13;4993321;28;20208;-79
2021/12/22 05:38:42;;;;;;;119.53;46.57;;;;;;;-3.77;72.20;95659.69;4993088;28;20180;-79
2021/12/22 05:41:07;;;;;;;149.07;49.63;;;;;;;-3.65;71.70;95676.88;4991974;28;20188;-78
2021/12/22 05:43:33;;;;;;;143.53;50.17;;;;;;;-3.86;71.53;95657.75;4992283;28;20255;-78
2021/12/22 05:45:59;;;;;;;118.67;46.10;;;;;;;-3.71;71.41;95692.72;4993115;28;20193;-78
2021/12/22 05:48:25;;;;;;;107.67;47.27;;;;;;;-3.79;71.60;95679.53;4984716;28;20188;-79
2021/12/22 05:50:53;;;;;;;112.37;47.37;;;;;;;-3.94;71.67;95662.59;4993111;28;20717;-79
2021/12/22 05:53:18;;;;;;;122.73;45.90;;;;;;;-3.91;72.04;95670.94;4991944;28;20173;-80
2021/12/22 05:55:44;;;;;;;115.23;46.10;;;;;;;-3.89;71.93;95663.91;4992808;28;20176;-78
2021/12/22 05:58:10;;;;;;;119.03;45.97;;;;;;;-3.77;72.30;95682.84;4993236;28;20546;-77
2021/12/22 06:00:36;;;;;;;128.37;47.07;;;;;;;-3.83;72.00;95678.13;4992336;28;20260;-78
2021/12/22 06:03:02;;;;;;;106.83;46.00;;;;;;;-3.96;72.12;95672.16;4992216;28;20552;-78
2021/12/22 06:05:27;;;;;;;121.33;45.50;;;;;;;-3.85;72.51;95685.94;4992142;28;20232;-78
2021/12/22 06:07:53;;;;;;;111.80;44.40;;;;;;;-3.89;72.61;95689.63;4993804;28;20212;-78
2021/12/22 06:10:19;;;;;;;97.33;44.77;;;;;;;-4.02;72.15;95652.00;4995163;28;20177;-78
2021/12/22 06:12:47;;;;;;;105.73;44.57;;;;;;;-3.87;72.16;95679.25;4995132;28;20162;-78
2021/12/22 06:15:12;;;;;;;97.83;43.90;;;;;;;-3.80;72.36;95688.19;4995157;28;20638;-77
2021/12/22 06:17:38;;;;;;;116.37;49.00;;;;;;;-3.93;72.36;95684.81;4995432;28;20179;-78
2021/12/22 06:20:05;;;;;;;131.53;53.30;;;;;;;-3.80;72.42;95698.47;4994939;28;20248;-78
2021/12/22 06:22:32;;;;;;;136.93;53.07;;;;;;;-3.79;71.99;95702.69;4995558;28;20177;-78
2021/12/22 06:24:58;;;;;;;133.10;51.97;;;;;;;-3.98;72.12;95671.44;4995982;28;20197;-78
2021/12/22 06:27:23;;;;;;;139.87;57.50;;;;;;;-3.72;72.10;95713.41;4996702;28;20260;-78
2021/12/22 06:29:49;;;;;;;144.67;56.73;;;;;;;-3.71;72.16;95713.28;4997144;28;20192;-78
2021/12/22 06:32:14;;;;;;;146.83;58.23;;;;;;;-3.71;72.16;95715.03;4996494;28;20239;-77
2021/12/22 06:34:40;;;;;;;160.03;62.27;;;;;;;-3.72;72.01;95703.94;4978222;28;20181;-78
2021/12/22 06:37:05;;;;;;;142.80;58.53;;;;;;;-3.67;72.19;95714.75;4995696;28;20188;-78
2021/12/22 06:39:31;;;;;;;137.57;56.53;;;;;;;-3.56;72.09;95721.75;4994177;28;20177;-78
2021/12/22 06:41:56;;;;;;;126.87;53.77;;;;;;;-3.45;71.69;95712.34;4995088;28;20253;-77
2021/12/22 06:44:25;;;;;;;134.93;55.20;;;;;;;-3.23;71.63;95714.28;4994941;28;20225;-77
2021/12/22 06:46:51;;;;;;;154.03;57.70;;;;;;;-2.68;71.02;95684.63;4995155;28;20177;-77
2021/12/22 06:49:17;;;;;;;147.63;57.53;;;;;;;-1.72;67.08;95722.22;4995095;28;20196;-77
2021/12/22 06:51:42;;;;;;;157.73;65.13;;;;;;;-1.53;64.38;95690.69;4994965;28;20209;-78
2021/12/22 06:54:08;;;;;;;168.23;69.93;;;;;;;-0.75;64.18;95721.63;4994712;28;20185;-78
2021/12/22 06:56:33;;;;;;;155.77;61.13;;;;;;;0.15;61.10;95720.38;4995076;28;20180;-78
2021/12/22 06:59:01;;;;;;;140.83;58.77;;;;;;;1.51;56.31;95718.25;4993351;28;20177;-77
2021/12/22 07:01:26;;;;;;;127.23;57.20;;;;;;;2.66;51.94;95726.94;4994825;28;20185;-77
2021/12/22 07:03:52;;;;;;;84.13;39.77;;;;;;;3.37;49.19;95709.00;4994494;28;20216;-77
2021/12/22 07:06:17;;;;;;;46.50;22.23;;;;;;;3.91;47.77;95721.09;4994380;28;20181;-77
2021/12/22 07:08:43;;;;;;;37.10;17.77;;;;;;;4.58;46.62;95724.13;4994732;28;20634;-77
2021/12/22 07:11:09;;;;;;;25.67;14.13;;;;;;;5.26;44.92;95719.78;4994609;28;20213;-78
2021/12/22 07:13:35;;;;;;;27.90;13.43;;;;;;;5.89;43.43;95722.75;4994606;28;20207;-77
2021/12/22 07:16:01;;;;;;;39.57;17.90;;;;;;;6.32;42.25;95721.66;4994634;28;20809;-78
2021/12/22 07:18:27;;;;;;;36.50;18.10;;;;;;;6.68;41.36;95713.47;4994569;28;20185;-78
2021/12/22 07:20:52;;;;;;;46.63;20.73;;;;;;;7.11;39.84;95715.69;4994360;28;20169;-78
2021/12/22 07:23:18;;;;;;;60.10;27.40;;;;;;;7.70;39.19;95710.84;4994341;28;20177;-78
2021/12/22 07:25:43;;;;;;;63.23;30.83;;;;;;;7.87;38.26;95722.09;4994145;28;20211;-77
2021/12/22 07:28:10;;;;;;;60.87;32.37;;;;;;;7.12;38.61;95716.50;4994050;28;20180;-76
2021/12/22 07:30:37;;;;;;;75.10;33.60;;;;;;;6.07;40.06;95720.00;4994121;28;20263;-77
2021/12/22 07:33:03;;;;;;;55.60;26.73;;;;;;;6.28;41.21;95717.75;4994184;28;20153;-77
2021/12/22 07:36:01;;;;;;;35.27;16.30;;;;;;;7.74;39.04;95717.41;4994194;28;20161;-76
2021/12/22 07:38:38;;;;;;;15.97;8.63;;;;;;;10.24;34.78;95717.75;4994248;28;20165;-78
2021/12/22 07:41:07;;;;;;;17.77;11.17;;;;;;;11.42;31.39;95707.31;4993999;28;20264;-78
2021/12/22 07:43:34;;;;;;;36.30;18.10;;;;;;;11.22;30.69;95714.31;4993654;28;20173;-77
2021/12/22 07:45:59;;;;;;;41.60;19.70;;;;;;;9.65;32.41;95701.28;4994102;28;20204;-77
2021/12/22 07:48:25;;;;;;;35.47;16.83;;;;;;;8.09;34.57;95707.38;4993130;28;20177;-77
2021/12/22 07:50:51;;;;;;;28.40;10.70;;;;;;;6.55;36.68;95700.91;4993338;28;20556;-77
2021/12/22 07:53:16;;;;;;;26.33;12.67;;;;;;;5.28;39.95;95704.75;4991916;28;20220;-77
2021/12/22 07:55:41;;;;;;;21.73;11.30;;;;;;;4.27;42.17;95705.47;4991745;28;20165;-76
2021/12/22 07:58:07;;;;;;;22.03;11.40;;;;;;;3.36;43.82;95704.75;4992158;28;20651;-76
2021/12/22 08:00:33;;;;;;;24.07;12.10;;;;;;;2.73;45.61;95707.22;4992213;28;20666;-76
2021/12/22 08:02:59;;;;;;;26.77;13.73;;;;;;;2.11;46.68;95708.56;4992659;28;20706;-76
2021/12/22 08:05:24;;;;;;;32.30;15.00;;;;;;;1.78;49.34;95715.00;4993203;28;20200;-77
2021/12/22 08:07:50;;;;;;;32.53;16.23;;;;;;;1.57;50.59;95716.03;4993536;28;20235;-78
2021/12/22 08:10:16;;;;;;;34.50;16.70;;;;;;;1.38;52.20;95719.44;4993390;28;20859;-77
2021/12/22 08:12:41;;;;;;;28.77;16.20;;;;;;;1.27;52.18;95722.16;4992903;28;20181;-77
2021/12/22 08:15:07;;;;;;;38.67;16.90;;;;;;;1.06;53.04;95728.22;4993386;28;20150;-77
2021/12/22 08:17:32;;;;;;;30.00;14.73;;;;;;;1.21;54.06;95728.66;4993266;28;20177;-78
2021/12/22 08:19:59;;;;;;;29.40;12.67;;;;;;;1.51;52.61;95738.16;4993529;28;20176;-78
2021/12/22 08:22:24;;;;;;;22.73;12.93;;;;;;;1.68;53.50;95692.56;4993668;28;20603;-77
2021/12/22 08:24:50;;;;;;;27.60;14.20;;;;;;;2.04;51.76;95735.22;4993026;28;20205;-77
2021/12/22 08:27:17;;;;;;;22.40;12.37;;;;;;;2.17;51.39;95735.75;4992935;28;20216;-77
2021/12/22 08:29:44;;;;;;;24.03;11.33;;;;;;;2.09;51.23;95717.44;4992985;28;20174;-77
2021/12/22 08:32:11;;;;;;;20.97;9.93;;;;;;;1.97;50.40;95714.19;4993311;28;20235;-78
2021/12/22 08:34:39;;;;;;;18.83;9.50;;;;;;;2.09;50.21;95728.66;4992876;28;20563;-78
2021/12/22 08:39:51;;;;;;;23.00;10.30;;;;;;;1.86;49.89;95730.69;4993021;28;20235;-76
2021/12/22 08:42:18;;;;;;;22.50;10.50;;;;;;;1.70;50.87;95742.56;4992636;28;20188;-78
2021/12/22 08:44:43;;;;;;;24.63;9.60;;;;;;;1.66;51.41;95723.84;4992632;28;20233;-75
2021/12/22 08:47:09;;;;;;;21.50;10.20;;;;;;;1.82;51.92;95742.28;4992398;28;20647;-78
2021/12/22 08:49:35;;;;;;;19.07;8.63;;;;;;;2.21;50.93;95737.13;4992694;28;20235;-78
2021/12/22 08:52:01;;;;;;;19.53;8.73;;;;;;;2.77;51.33;95738.97;4991515;28;20702;-78
2021/12/22 08:54:27;;;;;;;20.40;9.53;;;;;;;3.39;49.86;95746.91;4992778;28;20247;-77
2021/12/22 08:56:54;;;;;;;26.27;10.67;;;;;;;3.73;46.84;95743.69;4992776;28;20180;-76
2021/12/22 08:59:20;;;;;;;18.80;9.97;;;;;;;3.80;46.45;95748.16;4992567;28;20181;-77
2021/12/22 09:01:45;;;;;;;22.77;11.37;;;;;;;3.65;46.54;95733.19;4992566;28;20200;-78
2021/12/22 09:04:11;;;;;;;26.27;13.27;;;;;;;3.54;46.21;95739.44;4992661;28;20201;-77
2021/12/22 09:06:36;;;;;;;23.07;12.27;;;;;;;3.36;46.60;95743.78;4992939;28;20176;-77
2021/12/22 09:09:05;;;;;;;26.07;11.80;;;;;;;3.18;47.75;95738.53;4992390;28;20224;-77
2021/12/22 09:11:30;;;;;;;23.63;12.30;;;;;;;3.03;47.66;95745.13;4992347;28;20184;-77
2021/12/22 09:13:56;;;;;;;20.90;10.50;;;;;;;2.72;47.68;95717.75;4992362;28;20565;-79
2021/12/22 09:16:21;;;;;;;18.50;10.10;;;;;;;2.55;47.54;95720.13;4992637;28;20165;-77
2021/12/22 09:18:47;;;;;;;18.20;10.87;;;;;;;2.56;48.38;95737.34;4992503;28;20248;-77
2021/12/22 09:21:16;;;;;;;22.47;10.97;;;;;;;2.53;49.09;95729.00;4992471;28;20172;-77
2021/12/22 09:23:42;;;;;;;23.27;11.37;;;;;;;2.57;49.04;95741.59;4992310;28;20173;-78
2021/12/22 09:26:07;;;;;;;29.97;12.33;;;;;;;2.54;49.10;95731.47;4992565;28;20181;-77
2021/12/22 09:28:33;;;;;;;25.30;12.93;;;;;;;2.40;49.99;95698.16;4992333;28;20180;-77
2021/12/22 09:30:59;;;;;;;25.23;13.47;;;;;;;2.10;49.23;95729.47;4991939;28;20185;-77
2021/12/22 09:33:25;;;;;;;27.30;13.50;;;;;;;1.98;50.12;95726.22;4991806;28;20181;-78
2021/12/22 09:35:53;;;;;;;24.00;13.63;;;;;;;2.05;50.81;95726.47;4992334;28;20185;-76
2021/12/22 09:38:19;;;;;;;27.60;14.00;;;;;;;1.86;50.71;95735.91;4991986;28;20256;-76
2021/12/22 09:40:46;;;;;;;26.80;13.07;;;;;;;1.78;50.30;95725.38;4991459;28;20172;-77
2021/12/22 09:43:12;;;;;;;21.70;12.07;;;;;;;2.00;51.08;95713.06;4994824;28;20207;-77
2021/12/22 09:45:43;;;;;;;25.73;12.53;;;;;;;2.05;50.12;95718.69;4996013;28;20224;-77
2021/12/22 09:53:07;;;;;;;33.03;17.67;;;;;;;2.46;50.16;95694.16;4996005;28;20187;-78
2021/12/22 09:55:34;;;;;;;31.60;15.90;;;;;;;2.57;51.15;95707.81;4995114;28;20173;-78
2021/12/22 09:58:01;;;;;;;36.47;16.53;;;;;;;2.90;50.86;95695.25;4996245;28;20199;-78
2021/12/22 10:00:26;;;;;;;37.60;17.70;;;;;;;3.15;49.64;95688.56;4995180;28;20177;-78
2021/12/22 10:02:52;;;;;;;41.20;17.47;;;;;;;3.32;49.04;95696.41;4996150;28;20188;-78
2021/12/22 10:05:17;;;;;;;32.07;16.30;;;;;;;3.45;47.97;95692.66;4996395;28;20671;-78
2021/12/22 10:07:44;;;;;;;32.33;15.47;;;;;;;3.51;48.45;95695.50;4995970;28;20646;-78
2021/12/22 10:10:10;;;;;;;26.17;14.57;;;;;;;3.58;48.04;95691.31;4991385;28;20575;-77
2021/12/22 10:12:36;;;;;;;28.80;13.60;;;;;;;3.73;48.51;95689.84;4995523;28;20533;-78
2021/12/22 10:15:05;;;;;;;24.30;13.30;;;;;;;3.85;48.33;95680.03;4995968;28;20168;-79
2021/12/22 10:17:44;;;;;;;26.63;12.27;;;;;;;3.69;46.10;95678.09;4995976;28;20643;-78
2021/12/22 10:20:20;;;;;;;30.43;13.13;;;;;;;3.44;46.70;95684.03;4995503;28;20173;-78
2021/12/22 10:22:49;;;;;;;25.27;12.63;;;;;;;3.29;47.26;95688.06;4995681;28;20259;-78
2021/12/22 10:25:23;;;;;;;27.33;12.47;;;;;;;3.28;48.04;95691.66;4995204;28;20213;-77
2021/12/22 10:28:09;;;;;;;23.33;12.30;;;;;;;3.18;47.32;95680.47;4995934;28;20182;-77
2021/12/22 10:30:37;;;;;;;27.40;12.37;;;;;;;3.15;47.80;95686.78;4995444;28;20191;-77
2021/12/22 10:33:15;;;;;;;39.47;16.20;;;;;;;3.01;47.78;95690.69;4995359;28;20513;-77
2021/12/22 10:35:43;;;;;;;125.93;52.93;;;;;;;2.94;51.03;95683.63;4994192;28;20539;-77
2021/12/22 10:38:10;;;;;;;35.13;15.83;;;;;;;2.90;49.48;95682.25;4995393;28;20231;-77
2021/12/22 10:40:45;;;;;;;27.57;13.90;;;;;;;2.80;49.27;95671.06;4995271;28;20598;-76
2021/12/22 10:43:31;;;;;;;30.43;13.33;;;;;;;2.94;49.80;95678.41;4987913;28;20184;-77
2021/12/22 10:46:02;;;;;;;24.70;13.83;;;;;;;2.96;49.51;95677.28;4994897;28;20300;-77
2021/12/22 10:51:20;;;;;;;28.80;12.60;;;;;;;2.81;48.92;95678.72;4990571;28;20191;-76
2021/12/22 10:53:48;;;;;;;27.63;13.07;;;;;;;2.68;49.64;95664.44;4994179;28;20209;-76
2021/12/22 10:56:34;;;;;;;22.67;12.50;;;;;;;2.70;49.85;95667.69;4993433;28;20181;-76
2021/12/22 10:59:06;;;;;;;21.87;12.23;;;;;;;2.66;49.41;95661.97;4994671;28;20181;-75
2021/12/22 11:01:35;;;;;;;25.40;12.13;;;;;;;2.57;49.19;95655.03;4994440;28;20555;-75
2021/12/22 11:04:06;;;;;;;26.33;13.23;;;;;;;2.36;50.00;95656.97;4991992;28;20184;-76
2021/12/22 11:06:34;;;;;;;22.77;12.30;;;;;;;2.24;50.58;95656.34;4991325;28;20565;-76
2021/12/22 11:09:13;;;;;;;34.40;13.37;;;;;;;2.21;51.14;95659.22;4991543;28;20200;-76
2021/12/22 11:11:50;;;;;;;22.57;11.87;;;;;;;2.01;51.51;95614.28;4992461;28;20184;-76
2021/12/22 11:14:24;;;;;;;36.07;13.00;;;;;;;2.34;51.62;95643.31;4992660;28;20274;-76
2021/12/22 11:17:00;;;;;;;29.63;12.40;;;;;;;2.28;51.48;95645.53;4992968;28;20549;-76
2021/12/22 11:19:28;;;;;;;25.10;12.13;;;;;;;2.41;52.07;95644.41;4992851;28;20181;-76
2021/12/22 11:22:09;;;;;;;25.23;9.87;;;;;;;2.51;50.81;95642.56;4992755;28;20211;-76
2021/12/22 11:24:41;;;;;;;22.17;10.33;;;;;;;2.56;51.35;95643.81;4993131;28;20579;-76
2021/12/22 11:27:07;;;;;;;32.80;12.03;;;;;;;2.61;50.86;95631.19;4992795;28;20273;-76
2021/12/22 11:29:36;;;;;;;23.77;11.90;;;;;;;2.71;51.15;95638.13;4992643;28;20180;-76
2021/12/22 11:32:04;;;;;;;23.37;11.10;;;;;;;2.81;50.76;95639.75;4992524;28;20563;-75
2021/12/22 11:34:32;;;;;;;22.03;11.60;;;;;;;2.86;51.01;95628.88;4992540;28;20204;-76
2021/12/22 11:36:58;;;;;;;24.13;11.43;;;;;;;2.82;50.62;95614.56;4992666;28;20590;-76
2021/12/22 11:39:24;;;;;;;27.80;11.63;;;;;;;3.00;50.59;95641.44;4992371;28;20177;-76
2021/12/22 11:41:57;;;;;;;29.33;12.50;;;;;;;2.99;50.62;95619.00;4992521;28;20180;-76
2021/12/22 11:44:34;;;;;;;21.07;11.50;;;;;;;3.05;50.40;95608.00;4991677;28;20274;-76
2021/12/22 11:47:04;;;;;;;22.47;11.23;;;;;;;3.13;49.97;95620.25;4990290;28;20650;-75
2021/12/22 11:49:34;;;;;;;19.27;10.37;;;;;;;3.20;49.75;95618.75;4991391;28;20180;-76
2021/12/22 11:52:23;;;;;;;23.17;11.10;;;;;;;3.18;50.06;95625.88;4990164;28;20679;-76